KLFT

Lafayette Regional Airport

Airport
ICAO code
KLFT
Summary
ICAO Region
NAM
ICAO Territory
Location

Lafayette, Louisiana,

Serving
Lafayette, Louisiana
Coordinates
30° 12' 17" N , 91° 59' 14" W
KCC
Airport LOS
Parallel Runway Operation
Metar
Observation
KLFT 070753Z AUTO 00000KT 10SM CLR 17/16 A3013 RMK AO2 SLP204 T01670156
Station
Lafayette, Lafayette Regional Airport
Date/Time
2022-10-07 07:53:00
Wind direction
Wind speed
00 kts
Lowest cloud amount
n/a
Temperature
16.7°C
Dew point
15.6°C
Humidity
93%
Weather condition
n/a

Description

Lafayette Regional Airport is a public use airport located 4 km southeast of the central business district of Lafayette, a city in Lafayette Parish, Louisiana.

Climatology

Humid “subtropical” climate (Köppen climate classification Cfa) - characterized by hot, humid summers and cool winters. Significant amounts of precipitation occur in all seasons in most areas. Winter rainfall is associated with large storms that the westerlies steer from west to east. Most summer rainfall occurs during thunderstorms and occasional tropical storms (hurricanes).

Runways

Designator Length Width Surface Rops
04L/22R 1249 23 ASP Yes/Yes
11/29 1646 45 ASP Yes/Yes
04R/22L 2332 46 ASP Yes/Yes

Airport map

Aerial View

SKYbrary Partners:

Safety knowledge contributed by: